Time;durP1;ratioP1;P1;durP2;ratioP2;P2;SDS_P1;SDS_P2;PMS_P1;PMS_P2;Temp;Humidity;BMP_temperature;BMP_pressure;BME280_temperature;BME280_humidity;BME280_pressure;Samples;Min_cycle;Max_cycle;Signal;HPM_P1;HPM_P2
2022/01/17 00:02:22;;;;;;;5.30;4.80;;;;;;;;;;4996893;28;20026;-22
2022/01/17 00:04:49;;;;;;;5.60;5.10;;;;;;;;;;4997136;28;20033;-23
2022/01/17 00:07:16;;;;;;;4.50;4.10;;;;;;;;;;4996277;28;20422;-23
2022/01/17 00:09:42;;;;;;;4.88;4.38;;;;;;;;;;4996770;28;20362;-23
2022/01/17 00:12:10;;;;;;;6.07;4.88;;;;;;;;;;4996431;28;20023;-23
2022/01/17 00:14:40;;;;;;;5.43;4.28;;;;;;;;;;4996349;28;20041;-23
2022/01/17 00:19:44;;;;;;;5.07;4.72;;;;;;;;;;4996864;28;20269;-24
2022/01/17 00:22:12;;;;;;;4.68;4.20;;;;;;;;;;4996250;28;20093;-23
2022/01/17 00:24:38;;;;;;;5.03;4.55;;;;;;;;;;4996231;28;20335;-23
2022/01/17 00:27:04;;;;;;;4.57;4.18;;;;;;;;;;4996332;28;20092;-23
2022/01/17 00:29:30;;;;;;;4.45;4.05;;;;;;;;;;4996375;28;20032;-22
2022/01/17 00:31:57;;;;;;;5.82;5.05;;;;;;;;;;4995986;28;20035;-22
2022/01/17 00:34:24;;;;;;;4.63;4.22;;;;;;;;;;4995144;28;20034;-23
2022/01/17 00:36:50;;;;;;;7.28;4.47;;;;;;;;;;4995990;28;20030;-22
2022/01/17 00:39:17;;;;;;;5.60;5.15;;;;;;;;;;4995963;28;20031;-23
2022/01/17 00:41:43;;;;;;;5.40;4.57;;;;;;;;;;4996152;28;20034;-22
2022/01/17 00:44:09;;;;;;;4.88;4.43;;;;;;;;;;4995790;28;20061;-23
2022/01/17 00:46:36;;;;;;;4.47;4.18;;;;;;;;;;4994812;28;20358;-23
2022/01/17 00:49:03;;;;;;;5.07;4.57;;;;;;;;;;4995788;28;20433;-23
2022/01/17 00:51:29;;;;;;;4.28;3.88;;;;;;;;;;4995694;28;20088;-22
2022/01/17 00:53:55;;;;;;;5.82;4.25;;;;;;;;;;4995615;28;20037;-23
2022/01/17 00:56:22;;;;;;;5.35;4.60;;;;;;;;;;4995649;28;20046;-22
2022/01/17 00:58:49;;;;;;;4.75;4.20;;;;;;;;;;4995851;28;20453;-22
2022/01/17 01:01:15;;;;;;;5.68;5.18;;;;;;;;;;4995811;28;20031;-22
2022/01/17 01:03:42;;;;;;;5.22;4.57;;;;;;;;;;4995520;28;20034;-22
2022/01/17 01:06:08;;;;;;;6.40;4.32;;;;;;;;;;4995333;28;20092;-23
2022/01/17 01:08:34;;;;;;;5.55;5.15;;;;;;;;;;4995729;28;20105;-22
2022/01/17 01:11:00;;;;;;;5.45;4.95;;;;;;;;;;4995641;28;20034;-22
2022/01/17 01:13:29;;;;;;;4.72;4.32;;;;;;;;;;4995532;28;20026;-23
2022/01/17 01:29:28;;;;;;;5.97;4.53;;;;;;;;;;4995704;28;20054;-23
2022/01/17 01:31:59;;;;;;;4.90;4.32;;;;;;;;;;4995285;28;20031;-23
2022/01/17 01:34:35;;;;;;;4.35;3.95;;;;;;;;;;4995367;28;20022;-23
2022/01/17 01:37:04;;;;;;;4.35;3.97;;;;;;;;;;4995318;28;20031;-23
2022/01/17 01:39:31;;;;;;;4.80;4.40;;;;;;;;;;4995334;28;20429;-23
2022/01/17 01:41:58;;;;;;;4.65;4.25;;;;;;;;;;4995256;28;20325;-22
2022/01/17 01:44:25;;;;;;;4.78;4.38;;;;;;;;;;4995333;28;20413;-23
2022/01/17 01:46:52;;;;;;;4.85;4.45;;;;;;;;;;4995826;28;20026;-22
2022/01/17 01:49:19;;;;;;;4.60;4.20;;;;;;;;;;4994863;28;20034;-22
2022/01/17 01:51:46;;;;;;;4.35;3.95;;;;;;;;;;4995129;28;20034;-23
2022/01/17 01:54:13;;;;;;;4.40;4.05;;;;;;;;;;4994851;28;20026;-23
2022/01/17 01:56:43;;;;;;;5.40;4.53;;;;;;;;;;4994808;28;20164;-23
2022/01/17 01:59:10;;;;;;;4.43;4.03;;;;;;;;;;4994813;28;20033;-22
2022/01/17 02:01:36;;;;;;;4.60;4.22;;;;;;;;;;4998831;28;20057;-24
2022/01/17 02:04:03;;;;;;;4.68;4.28;;;;;;;;;;4998747;28;20109;-22
2022/01/17 02:06:29;;;;;;;5.05;4.60;;;;;;;;;;4998635;28;20049;-23
2022/01/17 02:08:55;;;;;;;4.55;4.15;;;;;;;;;;4998736;28;20026;-22
2022/01/17 02:11:21;;;;;;;6.70;4.55;;;;;;;;;;4998947;28;20030;-23
2022/01/17 02:13:48;;;;;;;4.47;3.88;;;;;;;;;;4998593;28;20030;-23
2022/01/17 02:16:16;;;;;;;5.97;5.07;;;;;;;;;;4998860;28;20064;-23
2022/01/17 02:18:43;;;;;;;5.18;4.50;;;;;;;;;;4998519;28;20034;-22
2022/01/17 02:23:40;;;;;;;4.03;3.72;;;;;;;;;;4998713;28;20438;-22
2022/01/17 02:26:06;;;;;;;4.63;4.22;;;;;;;;;;4998339;28;20030;-23
2022/01/17 02:28:36;;;;;;;4.47;4.05;;;;;;;;;;4998626;28;20084;-22
2022/01/17 02:31:06;;;;;;;5.18;4.72;;;;;;;;;;4998292;28;20034;-23
2022/01/17 02:33:33;;;;;;;5.28;4.88;;;;;;;;;;4998264;28;20050;-23
2022/01/17 02:35:59;;;;;;;4.72;4.28;;;;;;;;;;4998497;28;20033;-22
2022/01/17 02:38:25;;;;;;;4.55;4.15;;;;;;;;;;4998236;28;20038;-23
2022/01/17 02:40:52;;;;;;;4.50;4.20;;;;;;;;;;4998474;28;20034;-22
2022/01/17 02:43:21;;;;;;;4.50;4.20;;;;;;;;;;4998225;28;20027;-23
2022/01/17 02:48:23;;;;;;;4.80;3.97;;;;;;;;;;4998009;28;20030;-22
2022/01/17 02:50:49;;;;;;;4.65;4.35;;;;;;;;;;4997950;28;20037;-22
2022/01/17 02:53:16;;;;;;;4.63;4.22;;;;;;;;;;4996872;28;20034;-22
2022/01/17 02:55:48;;;;;;;4.65;4.20;;;;;;;;;;4997885;28;20110;-20
2022/01/17 02:58:14;;;;;;;4.55;4.15;;;;;;;;;;4998089;28;20045;-21
2022/01/17 03:00:41;;;;;;;5.10;4.63;;;;;;;;;;4998049;28;20030;-22
2022/01/17 03:03:09;;;;;;;4.97;4.40;;;;;;;;;;4997598;28;20026;-21
2022/01/17 03:05:35;;;;;;;4.28;3.97;;;;;;;;;;4997445;28;20036;-20
2022/01/17 03:08:03;;;;;;;3.97;3.47;;;;;;;;;;4997889;28;20393;-20
2022/01/17 03:10:43;;;;;;;4.38;3.83;;;;;;;;;;4997323;28;20033;-20
2022/01/17 03:13:15;;;;;;;4.85;4.45;;;;;;;;;;4996918;28;20026;-20
2022/01/17 03:15:42;;;;;;;4.85;4.40;;;;;;;;;;4997505;28;20037;-20
2022/01/17 03:18:08;;;;;;;4.22;3.90;;;;;;;;;;4997536;28;20438;-20
2022/01/17 03:20:37;;;;;;;4.00;3.70;;;;;;;;;;4997935;28;20037;-20
2022/01/17 03:23:03;;;;;;;4.95;4.55;;;;;;;;;;4997336;28;20041;-20
2022/01/17 03:25:29;;;;;;;4.45;4.05;;;;;;;;;;4996341;28;20436;-20
2022/01/17 03:27:55;;;;;;;4.97;4.57;;;;;;;;;;4997647;28;20065;-20
2022/01/17 03:30:24;;;;;;;4.22;3.83;;;;;;;;;;4997453;28;20022;-20
2022/01/17 03:32:51;;;;;;;4.20;3.83;;;;;;;;;;4997252;28;20034;-22
2022/01/17 03:35:17;;;;;;;4.70;4.30;;;;;;;;;;4997415;28;20056;-20
2022/01/17 03:37:44;;;;;;;3.95;3.65;;;;;;;;;;4997101;28;20034;-21
2022/01/17 03:40:11;;;;;;;4.25;3.90;;;;;;;;;;4997333;28;20045;-21
2022/01/17 03:42:37;;;;;;;4.88;4.47;;;;;;;;;;4996940;28;20052;-21
2022/01/17 03:45:07;;;;;;;4.38;4.00;;;;;;;;;;4996981;28;20500;-21
2022/01/17 03:47:44;;;;;;;4.50;4.10;;;;;;;;;;4996823;28;20124;-21
2022/01/17 03:50:12;;;;;;;5.65;4.53;;;;;;;;;;4997188;28;20026;-21
2022/01/17 03:52:40;;;;;;;4.78;4.38;;;;;;;;;;4996965;28;20478;-21
2022/01/17 03:55:07;;;;;;;3.80;3.50;;;;;;;;;;4996757;28;20030;-20
2022/01/17 03:57:33;;;;;;;4.93;4.35;;;;;;;;;;4997204;28;20081;-21
2022/01/17 03:59:59;;;;;;;4.60;4.25;;;;;;;;;;4995695;28;20462;-21
2022/01/17 04:02:26;;;;;;;4.20;3.90;;;;;;;;;;4995615;28;20330;-22
2022/01/17 04:04:52;;;;;;;4.78;4.38;;;;;;;;;;4996576;28;20046;-21
2022/01/17 04:07:18;;;;;;;4.80;4.25;;;;;;;;;;4996290;28;20050;-22
2022/01/17 04:09:44;;;;;;;4.07;3.72;;;;;;;;;;4996423;28;20110;-20
2022/01/17 04:12:11;;;;;;;3.80;3.50;;;;;;;;;;4996584;28;20042;-20
2022/01/17 04:14:38;;;;;;;4.45;4.07;;;;;;;;;;4996604;28;20080;-20
2022/01/17 04:17:06;;;;;;;4.28;3.88;;;;;;;;;;4996605;28;20118;-20
2022/01/17 04:19:32;;;;;;;4.70;4.15;;;;;;;;;;4996193;28;20125;-20
2022/01/17 04:21:59;;;;;;;4.00;3.70;;;;;;;;;;4996022;28;20026;-22
2022/01/17 04:24:25;;;;;;;5.13;4.30;;;;;;;;;;4996268;28;20101;-20
2022/01/17 04:26:51;;;;;;;5.15;4.65;;;;;;;;;;4996082;28;20358;-21
2022/01/17 04:29:19;;;;;;;4.53;4.22;;;;;;;;;;4996057;28;20022;-21
2022/01/17 04:31:45;;;;;;;4.75;4.35;;;;;;;;;;4996032;28;20026;-21
2022/01/17 04:34:11;;;;;;;3.88;3.65;;;;;;;;;;4995915;28;20370;-20
2022/01/17 04:36:37;;;;;;;4.50;4.10;;;;;;;;;;4995946;28;20395;-21
2022/01/17 04:39:04;;;;;;;4.85;3.85;;;;;;;;;;4995878;28;20044;-20
2022/01/17 04:41:39;;;;;;;4.65;4.05;;;;;;;;;;4995840;28;20038;-22
2022/01/17 04:46:51;;;;;;;4.43;4.03;;;;;;;;;;4995960;28;20165;-20
2022/01/17 04:49:17;;;;;;;4.13;3.83;;;;;;;;;;4996182;28;20038;-21
2022/01/17 04:51:45;;;;;;;5.40;4.25;;;;;;;;;;4995569;28;20465;-21
2022/01/17 04:56:53;;;;;;;4.78;4.38;;;;;;;;;;4995529;28;20030;-20
2022/01/17 04:59:19;;;;;;;4.07;3.78;;;;;;;;;;4995722;28;20339;-20
2022/01/17 05:01:45;;;;;;;4.18;3.83;;;;;;;;;;4995607;28;20370;-20
2022/01/17 05:04:11;;;;;;;4.57;4.28;;;;;;;;;;4995285;28;20026;-23
2022/01/17 05:06:37;;;;;;;4.38;3.97;;;;;;;;;;4994716;28;20042;-23
2022/01/17 05:09:04;;;;;;;3.90;3.50;;;;;;;;;;4995424;28;20084;-22
2022/01/17 05:11:31;;;;;;;4.30;3.88;;;;;;;;;;4996380;28;20030;-22
2022/01/17 05:13:58;;;;;;;4.05;3.75;;;;;;;;;;4995155;28;20444;-22
2022/01/17 05:16:33;;;;;;;4.80;4.40;;;;;;;;;;4995579;28;20034;-22
2022/01/17 05:21:44;;;;;;;4.65;4.35;;;;;;;;;;4995432;28;20048;-22
2022/01/17 05:24:10;;;;;;;4.53;3.90;;;;;;;;;;4995209;28;20073;-24
2022/01/17 05:26:36;;;;;;;4.20;3.80;;;;;;;;;;4994988;28;20109;-22
2022/01/17 05:29:02;;;;;;;4.53;4.00;;;;;;;;;;4994156;28;20046;-23
2022/01/17 05:31:28;;;;;;;4.53;4.20;;;;;;;;;;4995250;28;20022;-23
2022/01/17 05:33:55;;;;;;;4.50;4.15;;;;;;;;;;4994686;28;20095;-22
2022/01/17 05:36:21;;;;;;;4.15;3.75;;;;;;;;;;4993995;28;20125;-23
2022/01/17 05:38:47;;;;;;;4.88;4.38;;;;;;;;;;4995146;28;20026;-22
2022/01/17 05:41:13;;;;;;;5.00;4.60;;;;;;;;;;4995399;28;20354;-22
2022/01/17 05:43:39;;;;;;;4.53;4.13;;;;;;;;;;4995199;28;20460;-22
2022/01/17 05:46:05;;;;;;;4.43;4.07;;;;;;;;;;4994934;28;20377;-23
2022/01/17 05:48:31;;;;;;;4.07;3.78;;;;;;;;;;4995208;28;20018;-23
2022/01/17 05:50:58;;;;;;;6.43;5.68;;;;;;;;;;4995489;28;20026;-22
2022/01/17 05:53:24;;;;;;;4.82;4.32;;;;;;;;;;4994920;28;20030;-25
2022/01/17 05:55:50;;;;;;;7.50;4.63;;;;;;;;;;4995179;28;20037;-22
2022/01/17 05:58:16;;;;;;;4.38;3.85;;;;;;;;;;4993978;28;20034;-23
2022/01/17 06:03:19;;;;;;;6.50;4.70;;;;;;;;;;5361176;22;20082;-28
2022/01/17 06:05:46;;;;;;;9.38;4.22;;;;;;;;;;4993737;28;20045;-28
2022/01/17 06:08:12;;;;;;;5.68;3.80;;;;;;;;;;4993512;28;20044;-28
2022/01/17 06:10:38;;;;;;;4.70;3.53;;;;;;;;;;4993634;28;20410;-28
2022/01/17 06:13:05;;;;;;;4.22;3.83;;;;;;;;;;4994463;28;20026;-29
2022/01/17 06:15:31;;;;;;;5.43;3.97;;;;;;;;;;4993420;28;20046;-29
2022/01/17 06:17:58;;;;;;;4.60;4.20;;;;;;;;;;4994620;28;20028;-28
2022/01/17 06:20:24;;;;;;;6.97;4.40;;;;;;;;;;4994884;28;20156;-29
2022/01/17 06:22:50;;;;;;;5.80;4.60;;;;;;;;;;4994458;28;20038;-28
2022/01/17 06:25:16;;;;;;;10.63;4.70;;;;;;;;;;4993484;28;20346;-28
2022/01/17 06:27:42;;;;;;;6.35;4.85;;;;;;;;;;4994324;28;20494;-28
2022/01/17 06:30:09;;;;;;;4.45;3.42;;;;;;;;;;4994352;28;20405;-28
2022/01/17 06:32:35;;;;;;;5.13;4.38;;;;;;;;;;4993141;28;20060;-28
2022/01/17 06:35:04;;;;;;;4.38;4.00;;;;;;;;;;4994395;28;20027;-29
2022/01/17 06:37:31;;;;;;;4.88;3.72;;;;;;;;;;4994200;28;20113;-28
2022/01/17 06:39:57;;;;;;;5.38;3.85;;;;;;;;;;4994555;28;20054;-29
2022/01/17 06:42:24;;;;;;;13.23;4.38;;;;;;;;;;4994033;28;20031;-28
2022/01/17 06:44:51;;;;;;;4.40;3.60;;;;;;;;;;4994465;28;20026;-28
2022/01/17 06:47:17;;;;;;;7.55;4.03;;;;;;;;;;4997613;28;20113;-28
2022/01/17 06:49:43;;;;;;;7.05;3.95;;;;;;;;;;4997793;28;20032;-28
2022/01/17 06:52:10;;;;;;;3.95;3.55;;;;;;;;;;4997867;28;20029;-28
2022/01/17 06:54:36;;;;;;;6.95;4.32;;;;;;;;;;4997679;28;20357;-28
2022/01/17 06:57:02;;;;;;;6.68;4.47;;;;;;;;;;4997719;28;20107;-29
2022/01/17 06:59:29;;;;;;;4.40;3.83;;;;;;;;;;4997621;28;20041;-28
2022/01/17 07:01:55;;;;;;;4.95;4.18;;;;;;;;;;4997776;28;20048;-28
2022/01/17 07:04:21;;;;;;;5.00;4.20;;;;;;;;;;4997189;28;20053;-29
2022/01/17 07:06:47;;;;;;;5.97;3.70;;;;;;;;;;4997492;28;20338;-29
2022/01/17 07:09:16;;;;;;;5.32;4.15;;;;;;;;;;4997317;28;20037;-29
2022/01/17 07:11:43;;;;;;;8.32;4.20;;;;;;;;;;4997325;28;20034;-28
2022/01/17 07:14:10;;;;;;;12.75;4.82;;;;;;;;;;4997723;28;20030;-28
2022/01/17 07:16:37;;;;;;;6.90;4.18;;;;;;;;;;4997364;28;20030;-28
2022/01/17 07:19:04;;;;;;;6.43;4.53;;;;;;;;;;4997286;28;20033;-29
2022/01/17 07:21:30;;;;;;;4.25;3.90;;;;;;;;;;4997241;28;20080;-28
2022/01/17 07:23:56;;;;;;;8.73;4.07;;;;;;;;;;4997193;28;20026;-29
2022/01/17 07:26:23;;;;;;;6.05;4.00;;;;;;;;;;4997231;28;20022;-28
2022/01/17 07:28:49;;;;;;;6.55;5.07;;;;;;;;;;4997171;28;20030;-28
2022/01/17 07:31:16;;;;;;;11.45;4.50;;;;;;;;;;4996956;28;20026;-28
2022/01/17 07:33:42;;;;;;;11.35;4.63;;;;;;;;;;4997379;28;20022;-28
2022/01/17 07:36:09;;;;;;;8.10;3.92;;;;;;;;;;4997009;28;20029;-29
2022/01/17 07:38:36;;;;;;;6.35;3.83;;;;;;;;;;4995963;28;20034;-28
2022/01/17 07:41:03;;;;;;;9.23;4.43;;;;;;;;;;4997046;28;20114;-28
2022/01/17 07:43:29;;;;;;;4.97;4.45;;;;;;;;;;4996800;28;20454;-27
2022/01/17 07:46:05;;;;;;;6.38;4.35;;;;;;;;;;4995722;28;20038;-28
2022/01/17 07:51:16;;;;;;;6.72;5.05;;;;;;;;;;4997045;28;20066;-28
2022/01/17 07:53:42;;;;;;;9.13;4.05;;;;;;;;;;4996743;28;20029;-28
2022/01/17 07:56:10;;;;;;;7.30;4.50;;;;;;;;;;4996719;28;20033;-29
2022/01/17 07:58:36;;;;;;;8.88;3.65;;;;;;;;;;4996187;28;20089;-29
2022/01/17 08:01:03;;;;;;;8.63;4.50;;;;;;;;;;4996640;28;20037;-28
2022/01/17 08:03:29;;;;;;;9.05;4.38;;;;;;;;;;4995112;28;20477;-28
2022/01/17 08:05:56;;;;;;;7.70;3.80;;;;;;;;;;4996595;28;20417;-39
2022/01/17 08:08:22;;;;;;;9.25;4.40;;;;;;;;;;4996690;28;20041;-28
2022/01/17 08:10:49;;;;;;;11.23;5.53;;;;;;;;;;4996434;28;20034;-28
2022/01/17 08:13:15;;;;;;;8.40;3.70;;;;;;;;;;4996312;28;20026;-29
2022/01/17 08:15:44;;;;;;;7.20;4.20;;;;;;;;;;4996216;28;20034;-29
2022/01/17 08:18:10;;;;;;;6.28;4.40;;;;;;;;;;4996111;28;20030;-29
2022/01/17 08:20:37;;;;;;;9.13;4.28;;;;;;;;;;4995656;28;20030;-28
2022/01/17 08:23:03;;;;;;;5.00;3.85;;;;;;;;;;4996237;28;20046;-29
2022/01/17 08:25:30;;;;;;;4.95;4.03;;;;;;;;;;4996671;28;20038;-28
2022/01/17 08:27:56;;;;;;;8.15;4.25;;;;;;;;;;4996194;28;20034;-28
2022/01/17 08:30:23;;;;;;;8.38;4.88;;;;;;;;;;4996265;28;20026;-28
2022/01/17 08:32:50;;;;;;;4.95;3.88;;;;;;;;;;4994977;28;20310;-28
2022/01/17 08:35:17;;;;;;;11.98;4.75;;;;;;;;;;4994894;28;20409;-28
2022/01/17 08:37:43;;;;;;;9.18;4.28;;;;;;;;;;4995041;28;20026;-28
2022/01/17 08:40:10;;;;;;;5.68;4.68;;;;;;;;;;4996163;28;20034;-29
2022/01/17 08:42:37;;;;;;;8.27;4.78;;;;;;;;;;4995790;28;20026;-29
2022/01/17 08:45:08;;;;;;;8.50;4.53;;;;;;;;;;4994670;28;20350;-29
2022/01/17 08:47:34;;;;;;;12.45;4.15;;;;;;;;;;4995601;28;20065;-30
2022/01/17 08:50:00;;;;;;;8.90;3.92;;;;;;;;;;4994649;28;20117;-29
2022/01/17 08:52:27;;;;;;;11.27;4.60;;;;;;;;;;4995531;28;20053;-29
2022/01/17 08:54:54;;;;;;;11.85;4.60;;;;;;;;;;4994483;28;20042;-29
2022/01/17 08:57:20;;;;;;;6.53;4.10;;;;;;;;;;4995308;28;20037;-28
2022/01/17 08:59:47;;;;;;;6.07;4.03;;;;;;;;;;4995500;28;20105;-29
2022/01/17 09:02:14;;;;;;;18.25;4.05;;;;;;;;;;4995081;28;20087;-29
2022/01/17 09:04:43;;;;;;;6.60;4.25;;;;;;;;;;4995733;28;20034;-29
2022/01/17 09:07:14;;;;;;;8.07;4.15;;;;;;;;;;4995604;28;20375;-30
2022/01/17 09:09:41;;;;;;;6.22;3.97;;;;;;;;;;4994853;28;20105;-29
2022/01/17 09:12:09;;;;;;;5.43;3.70;;;;;;;;;;4995238;28;20038;-29
2022/01/17 09:14:35;;;;;;;11.95;4.70;;;;;;;;;;4995318;28;20128;-29
2022/01/17 09:17:19;;;;;;;6.70;4.47;;;;;;;;;;4994040;28;20073;-29
2022/01/17 09:19:48;;;;;;;13.13;4.57;;;;;;;;;;4995462;28;20030;-29
2022/01/17 09:22:14;;;;;;;7.47;4.25;;;;;;;;;;4994085;28;20045;-29
2022/01/17 09:24:41;;;;;;;6.45;4.65;;;;;;;;;;4995140;28;20030;-29
2022/01/17 09:27:08;;;;;;;12.85;5.28;;;;;;;;;;4995104;28;20068;-30
2022/01/17 09:29:34;;;;;;;11.75;5.25;;;;;;;;;;4995146;28;20089;-30
2022/01/17 09:32:01;;;;;;;7.97;4.20;;;;;;;;;;4993851;28;20041;-30
2022/01/17 09:34:27;;;;;;;6.25;4.50;;;;;;;;;;4994845;28;20026;-30
2022/01/17 09:36:54;;;;;;;9.80;4.50;;;;;;;;;;4995042;28;20030;-30
2022/01/17 09:39:20;;;;;;;11.45;4.55;;;;;;;;;;4994993;28;20338;-29
2022/01/17 09:41:47;;;;;;;6.80;4.57;;;;;;;;;;4994699;28;20334;-30
2022/01/17 09:44:13;;;;;;;6.78;4.80;;;;;;;;;;4993932;28;20371;-28
2022/01/17 09:46:46;;;;;;;14.18;5.50;;;;;;;;;;4994811;28;20030;-28
2022/01/17 09:49:20;;;;;;;10.48;4.28;;;;;;;;;;4994191;28;20018;-29
2022/01/17 09:54:25;;;;;;;7.22;4.32;;;;;;;;;;4994997;28;20035;-28
2022/01/17 09:56:54;;;;;;;7.72;4.45;;;;;;;;;;4995208;28;20034;-29
2022/01/17 09:59:20;;;;;;;5.80;4.10;;;;;;;;;;4993865;28;20030;-29
2022/01/17 10:01:48;;;;;;;15.15;4.68;;;;;;;;;;4994792;28;20081;-29
2022/01/17 10:04:16;;;;;;;9.50;4.13;;;;;;;;;;4994606;28;20061;-28
2022/01/17 10:06:44;;;;;;;10.95;5.43;;;;;;;;;;4994735;28;20420;-28
2022/01/17 10:09:17;;;;;;;9.15;4.43;;;;;;;;;;4993998;28;20469;-29
2022/01/17 10:12:01;;;;;;;12.35;4.43;;;;;;;;;;4995003;28;20531;-29
2022/01/17 10:14:30;;;;;;;8.88;4.88;;;;;;;;;;4994676;28;20026;-29
2022/01/17 10:16:56;;;;;;;8.13;4.75;;;;;;;;;;4993633;28;20113;-29
2022/01/17 10:19:25;;;;;;;11.13;4.65;;;;;;;;;;4994580;28;20110;-28
2022/01/17 10:21:55;;;;;;;10.57;4.45;;;;;;;;;;4997462;28;20030;-28
2022/01/17 10:24:29;;;;;;;10.20;5.05;;;;;;;;;;4998453;28;20100;-29
2022/01/17 10:35:36;;;;;;;13.20;4.35;;;;;;;;;;4975388;28;20136;-29
2022/01/17 10:38:04;;;;;;;15.25;4.53;;;;;;;;;;4997961;28;20038;-28
2022/01/17 10:40:32;;;;;;;10.45;4.82;;;;;;;;;;4997946;28;20034;-29
2022/01/17 10:42:59;;;;;;;14.07;4.57;;;;;;;;;;4998163;28;20461;-29
2022/01/17 10:45:33;;;;;;;18.90;5.80;;;;;;;;;;4998227;28;20426;-28
2022/01/17 10:48:01;;;;;;;9.57;4.85;;;;;;;;;;4997923;28;20040;-29
2022/01/17 10:50:32;;;;;;;12.32;4.90;;;;;;;;;;4996959;28;20033;-28
2022/01/17 10:53:00;;;;;;;9.07;5.05;;;;;;;;;;4997865;28;20031;-28
2022/01/17 10:55:31;;;;;;;9.57;3.55;;;;;;;;;;4997953;28;20097;-29
2022/01/17 10:57:59;;;;;;;13.32;4.70;;;;;;;;;;4997625;28;20122;-30
2022/01/17 11:00:27;;;;;;;8.10;4.32;;;;;;;;;;4998322;28;20101;-29
2022/01/17 11:02:55;;;;;;;6.88;4.00;;;;;;;;;;4997418;28;20050;-29
2022/01/17 11:05:22;;;;;;;6.63;3.92;;;;;;;;;;4997450;28;20037;-28
2022/01/17 11:07:49;;;;;;;15.07;5.38;;;;;;;;;;4997412;28;20531;-28
2022/01/17 11:10:24;;;;;;;9.52;4.53;;;;;;;;;;4997243;28;20030;-27
2022/01/17 11:12:52;;;;;;;15.77;4.75;;;;;;;;;;4997178;28;20022;-29
2022/01/17 11:15:19;;;;;;;12.80;5.18;;;;;;;;;;4997494;28;20433;-29
2022/01/17 11:17:49;;;;;;;7.70;3.80;;;;;;;;;;4997549;28;20037;-28
2022/01/17 11:20:16;;;;;;;10.45;4.88;;;;;;;;;;4997699;28;20100;-29
2022/01/17 11:22:44;;;;;;;10.65;4.15;;;;;;;;;;4997708;28;20069;-28
2022/01/17 11:25:11;;;;;;;10.75;4.53;;;;;;;;;;4997240;28;20030;-29
2022/01/17 11:27:39;;;;;;;8.18;4.00;;;;;;;;;;4997292;28;20019;-28
2022/01/17 11:30:06;;;;;;;9.73;3.92;;;;;;;;;;4997075;28;20049;-29
2022/01/17 11:32:32;;;;;;;11.20;4.57;;;;;;;;;;4995662;28;20116;-28
2022/01/17 11:35:01;;;;;;;15.43;4.88;;;;;;;;;;4996027;28;20045;-29
2022/01/17 11:37:32;;;;;;;9.07;4.57;;;;;;;;;;4996889;28;20061;-29
2022/01/17 11:39:59;;;;;;;14.25;4.13;;;;;;;;;;4996156;28;20037;-28
2022/01/17 11:42:35;;;;;;;8.73;4.13;;;;;;;;;;4996766;28;20034;-29
2022/01/17 11:45:03;;;;;;;7.53;4.00;;;;;;;;;;4995979;28;20050;-28
2022/01/17 11:47:48;;;;;;;7.88;3.95;;;;;;;;;;4995952;28;20139;-29
2022/01/17 11:50:36;;;;;;;15.60;5.30;;;;;;;;;;4996254;28;20453;-29
2022/01/17 11:53:12;;;;;;;7.20;4.20;;;;;;;;;;4997013;28;20030;-29
2022/01/17 11:55:44;;;;;;;12.80;6.43;;;;;;;;;;4996841;28;20045;-28
2022/01/17 11:58:18;;;;;;;11.60;4.03;;;;;;;;;;4997080;28;20022;-29
2022/01/17 12:00:44;;;;;;;11.40;4.88;;;;;;;;;;4996900;28;20045;-29
2022/01/17 12:03:21;;;;;;;12.02;4.13;;;;;;;;;;4995191;28;20477;-29
2022/01/17 12:05:47;;;;;;;10.68;4.68;;;;;;;;;;4996822;28;20049;-29
2022/01/17 12:08:16;;;;;;;8.00;3.92;;;;;;;;;;4996551;28;20037;-29
2022/01/17 12:10:44;;;;;;;18.90;5.35;;;;;;;;;;4996680;28;20030;-29
2022/01/17 12:13:19;;;;;;;13.23;4.05;;;;;;;;;;4996543;28;20030;-30
2022/01/17 12:16:18;;;;;;;13.52;4.95;;;;;;;;;;4996912;28;20057;-29
2022/01/17 12:18:49;;;;;;;7.68;4.28;;;;;;;;;;4982050;28;20177;-30
2022/01/17 12:21:33;;;;;;;12.13;4.10;;;;;;;;;;4996300;28;20105;-29
2022/01/17 12:24:18;;;;;;;13.05;4.80;;;;;;;;;;4996200;28;20026;-30
2022/01/17 12:26:44;;;;;;;13.25;3.92;;;;;;;;;;4996114;28;20045;-30
2022/01/17 12:29:11;;;;;;;9.93;4.32;;;;;;;;;;4996212;28;20041;-29
2022/01/17 12:31:45;;;;;;;11.98;5.38;;;;;;;;;;4996095;28;20361;-29
2022/01/17 12:34:24;;;;;;;9.55;4.05;;;;;;;;;;4996192;28;20034;-30
2022/01/17 12:36:54;;;;;;;10.90;4.35;;;;;;;;;;4996270;28;20030;-30
2022/01/17 12:39:20;;;;;;;12.40;4.07;;;;;;;;;;4995976;28;20535;-29
2022/01/17 12:41:48;;;;;;;6.82;4.82;;;;;;;;;;4995790;28;20023;-28
2022/01/17 12:44:19;;;;;;;16.38;5.40;;;;;;;;;;4995647;28;20034;-29
2022/01/17 12:46:45;;;;;;;;;;;;;;;;;;4996125;28;20458;-29
2022/01/17 12:49:12;;;;;;;11.00;4.18;;;;;;;;;;4995761;28;19992;-29
2022/01/17 12:51:45;;;;;;;18.90;5.40;;;;;;;;;;4995674;28;20109;-29
2022/01/17 12:54:13;;;;;;;17.95;4.68;;;;;;;;;;4995528;28;20023;-29
2022/01/17 12:56:45;;;;;;;11.98;4.45;;;;;;;;;;4994533;28;20133;-29
2022/01/17 12:59:12;;;;;;;19.83;4.63;;;;;;;;;;4995861;28;20045;-29
2022/01/17 13:01:45;;;;;;;14.82;4.65;;;;;;;;;;4995704;28;20038;-29
2022/01/17 13:04:12;;;;;;;30.00;4.95;;;;;;;;;;4994181;28;20239;-29
2022/01/17 13:06:42;;;;;;;17.52;5.00;;;;;;;;;;4995235;28;20488;-29
2022/01/17 13:09:09;;;;;;;17.95;6.60;;;;;;;;;;4995397;28;20026;-29
2022/01/17 13:11:39;;;;;;;15.02;4.90;;;;;;;;;;4995145;28;20049;-29
2022/01/17 13:14:05;;;;;;;11.68;4.53;;;;;;;;;;4995389;28;20032;-28
2022/01/17 13:16:35;;;;;;;20.20;4.85;;;;;;;;;;4995087;28;20037;-29
2022/01/17 13:19:03;;;;;;;13.90;5.10;;;;;;;;;;4995194;28;20113;-29
2022/01/17 13:21:29;;;;;;;13.70;4.45;;;;;;;;;;4994926;28;20049;-29
2022/01/17 13:24:14;;;;;;;11.48;5.53;;;;;;;;;;4995096;28;20088;-29
2022/01/17 13:26:46;;;;;;;20.20;5.65;;;;;;;;;;4994757;28;20034;-29
2022/01/17 13:29:13;;;;;;;13.77;3.92;;;;;;;;;;4995103;28;20080;-28
2022/01/17 13:31:39;;;;;;;19.15;5.18;;;;;;;;;;4994821;28;20100;-28
2022/01/17 13:34:14;;;;;;;14.80;4.18;;;;;;;;;;4994924;28;20087;-29
2022/01/17 13:36:41;;;;;;;24.98;3.92;;;;;;;;;;4994804;28;20052;-30
2022/01/17 13:39:11;;;;;;;17.15;4.13;;;;;;;;;;4994717;28;20097;-29
2022/01/17 13:41:43;;;;;;;17.33;5.10;;;;;;;;;;4994003;28;20030;-31
2022/01/17 13:44:09;;;;;;;;;;;;;;;;;;4995401;28;20030;-29
2022/01/17 13:46:43;;;;;;;13.38;4.68;;;;;;;;;;4994636;28;20236;-28
2022/01/17 13:49:09;;;;;;;14.93;4.65;;;;;;;;;;4994640;28;20027;-29
2022/01/17 13:51:36;;;;;;;15.32;4.65;;;;;;;;;;4994866;28;20030;-29
2022/01/17 13:54:03;;;;;;;9.98;4.25;;;;;;;;;;4994613;28;20030;-28
2022/01/17 13:56:33;;;;;;;13.55;4.47;;;;;;;;;;4999122;28;20023;-29
2022/01/17 13:58:59;;;;;;;13.25;4.53;;;;;;;;;;5000671;28;20415;-29
2022/01/17 14:01:31;;;;;;;16.13;4.25;;;;;;;;;;5000933;28;20027;-29
2022/01/17 14:03:59;;;;;;;12.68;3.90;;;;;;;;;;4999600;28;20046;-29
2022/01/17 14:06:28;;;;;;;12.63;4.78;;;;;;;;;;5000998;28;20026;-29
2022/01/17 14:08:59;;;;;;;13.35;4.30;;;;;;;;;;5000909;28;20058;-29
2022/01/17 14:11:26;;;;;;;15.55;4.90;;;;;;;;;;5000001;28;20026;-29
2022/01/17 14:13:53;;;;;;;16.70;4.60;;;;;;;;;;5000854;28;20471;-29
2022/01/17 14:16:35;;;;;;;12.65;4.32;;;;;;;;;;5001508;28;20076;-30
2022/01/17 14:19:04;;;;;;;21.05;5.75;;;;;;;;;;5000890;28;20076;-30
2022/01/17 14:21:37;;;;;;;18.23;4.38;;;;;;;;;;5000044;28;20098;-29
2022/01/17 14:24:06;;;;;;;19.27;4.72;;;;;;;;;;5001018;28;20026;-30
2022/01/17 14:26:33;;;;;;;16.55;4.57;;;;;;;;;;5000754;28;20038;-30
2022/01/17 14:29:00;;;;;;;20.58;5.85;;;;;;;;;;4999632;28;20027;-30
2022/01/17 14:31:37;;;;;;;13.50;4.88;;;;;;;;;;4999805;28;20364;-30
2022/01/17 14:34:14;;;;;;;33.33;6.55;;;;;;;;;;5000755;28;20026;-30
2022/01/17 14:36:41;;;;;;;17.17;4.68;;;;;;;;;;4999530;28;20034;-30
2022/01/17 14:39:07;;;;;;;23.83;7.55;;;;;;;;;;5001220;28;20101;-30
2022/01/17 14:41:36;;;;;;;20.67;4.50;;;;;;;;;;5000660;28;20030;-30
2022/01/17 14:44:11;;;;;;;12.13;5.78;;;;;;;;;;5000570;28;20473;-30
2022/01/17 14:47:04;;;;;;;16.88;4.82;;;;;;;;;;5000558;28;20026;-30
2022/01/17 14:49:30;;;;;;;17.75;5.13;;;;;;;;;;4997132;28;20045;-29
2022/01/17 14:52:00;;;;;;;24.90;5.05;;;;;;;;;;5000347;28;20037;-30
2022/01/17 14:54:34;;;;;;;23.05;5.38;;;;;;;;;;5000398;28;20027;-29
2022/01/17 14:59:55;;;;;;;13.13;4.50;;;;;;;;;;5000801;28;20049;-30
2022/01/17 15:04:48;;;;;;;17.30;5.25;;;;;;;;;;5000478;28;20034;-30
2022/01/17 15:07:16;;;;;;;16.63;5.18;;;;;;;;;;4999246;28;20046;-30
2022/01/17 15:09:46;;;;;;;16.00;4.00;;;;;;;;;;4997493;28;20065;-30
2022/01/17 15:12:12;;;;;;;11.20;3.95;;;;;;;;;;4997596;28;20026;-30
2022/01/17 15:14:39;;;;;;;15.05;4.47;;;;;;;;;;4997398;28;20042;-30
2022/01/17 15:17:13;;;;;;;20.90;4.65;;;;;;;;;;4997342;28;20053;-30
2022/01/17 15:19:39;;;;;;;14.80;4.13;;;;;;;;;;4997600;28;20382;-29
2022/01/17 15:22:05;;;;;;;33.88;5.10;;;;;;;;;;4996339;28;20034;-30
2022/01/17 15:24:32;;;;;;;15.13;4.68;;;;;;;;;;4997452;28;20453;-28
2022/01/17 15:26:58;;;;;;;22.98;7.90;;;;;;;;;;4997010;28;20177;-30
2022/01/17 15:29:26;;;;;;;10.07;4.20;;;;;;;;;;4997425;28;20354;-30
2022/01/17 15:31:55;;;;;;;21.77;4.90;;;;;;;;;;4997343;28;20100;-31
2022/01/17 15:34:22;;;;;;;21.95;5.22;;;;;;;;;;4997322;28;20050;-30
2022/01/17 15:36:48;;;;;;;17.48;4.38;;;;;;;;;;4996976;28;20038;-30